Time;durP1;ratioP1;P1;durP2;ratioP2;P2;SDS_P1;SDS_P2;PMS_P1;PMS_P2;Temp;Humidity;BMP_temperature;BMP_pressure;BME280_temperature;BME280_humidity;BME280_pressure;Samples;Min_cycle;Max_cycle;Signal;HPM_P1;HPM_P2
2021/06/17 00:00:42;;;;;;;12.50;11.18;;;20.10;83.90;;;;;;5086897;28;20066;-66
2021/06/17 00:03:08;;;;;;;15.13;13.50;;;20.10;84.10;;;;;;5089076;28;20097;-66
2021/06/17 00:05:34;;;;;;;15.00;13.50;;;20.10;84.20;;;;;;5091719;28;20036;-66
2021/06/17 00:08:02;;;;;;;17.58;14.27;;;20.20;84.30;;;;;;5086593;28;20050;-66
2021/06/17 00:10:33;;;;;;;16.88;12.70;;;20.20;84.50;;;;;;5075814;28;20038;-66
2021/06/17 00:13:06;;;;;;;17.63;14.77;;;20.20;84.70;;;;;;5094490;28;20469;-66
2021/06/17 00:15:33;;;;;;;16.95;13.32;;;20.20;84.80;;;;;;5092434;28;20058;-66
2021/06/17 00:17:59;;;;;;;17.25;13.90;;;20.20;84.90;;;;;;5095449;28;20035;-66
2021/06/17 00:20:26;;;;;;;15.32;13.63;;;20.20;85.00;;;;;;5093724;28;20032;-66
2021/06/17 00:22:52;;;;;;;15.27;13.65;;;20.10;85.20;;;;;;5090779;28;20494;-66
2021/06/17 00:25:18;;;;;;;15.70;13.43;;;20.10;85.40;;;;;;5095198;28;20081;-66
2021/06/17 00:27:43;;;;;;;17.08;14.32;;;20.10;86.10;;;;;;5096263;28;20115;-66
2021/06/17 00:30:11;;;;;;;16.85;14.85;;;20.10;85.60;;;;;;5091569;28;20035;-66
2021/06/17 00:32:36;;;;;;;20.67;15.00;;;20.10;85.80;;;;;;5094321;28;20039;-66
2021/06/17 00:35:02;;;;;;;17.52;15.38;;;20.10;85.70;;;;;;5090528;28;20463;-66
2021/06/17 00:37:28;;;;;;;18.00;16.13;;;20.10;85.80;;;;;;5095696;28;20031;-66
2021/06/17 00:39:53;;;;;;;19.83;17.10;;;20.10;85.80;;;;;;5095785;28;20016;-66
2021/06/17 00:42:20;;;;;;;19.55;17.45;;;20.10;85.90;;;;;;5093663;28;20057;-66
2021/06/17 00:44:46;;;;;;;14.68;13.15;;;20.00;86.00;;;;;;5092208;28;20024;-66
2021/06/17 00:47:11;;;;;;;25.58;15.52;;;20.00;86.20;;;;;;5094655;28;20020;-67
2021/06/17 00:49:37;;;;;;;20.80;17.08;;;20.00;86.40;;;;;;5081195;28;20058;-66
2021/06/17 00:52:06;;;;;;;18.25;15.30;;;19.90;86.70;;;;;;5092190;28;20483;-67
2021/06/17 00:54:33;;;;;;;19.25;15.68;;;19.90;86.90;;;;;;5073654;28;20119;-67
2021/06/17 00:57:02;;;;;;;19.25;16.90;;;19.80;87.20;;;;;;5092517;28;20020;-67
2021/06/17 00:59:28;;;;;;;20.63;16.48;;;19.80;88.10;;;;;;5091012;28;20024;-67
2021/06/17 01:01:54;;;;;;;18.55;16.77;;;19.80;87.50;;;;;;5091833;28;20085;-67
2021/06/17 01:04:21;;;;;;;20.25;18.25;;;19.80;87.60;;;;;;5092782;28;20024;-67
2021/06/17 01:06:47;;;;;;;18.50;16.73;;;19.70;87.80;;;;;;5094184;28;20039;-66
2021/06/17 01:09:20;;;;;;;20.80;16.33;;;19.70;87.90;;;;;;5090800;28;20081;-67
2021/06/17 01:12:04;;;;;;;17.52;15.75;;;19.60;88.10;;;;;;5082860;28;20069;-67
2021/06/17 01:14:37;;;;;;;17.75;15.93;;;19.60;88.30;;;;;;5073522;28;20065;-67
2021/06/17 01:17:13;;;;;;;24.40;18.50;;;19.60;88.60;;;;;;5088986;28;20079;-66
2021/06/17 01:19:51;;;;;;;21.02;18.65;;;19.50;88.80;;;;;;5092481;28;20048;-67
2021/06/17 01:22:52;;;;;;;22.10;16.52;;;19.50;89.10;;;;;;5088783;28;20032;-67
2021/06/17 01:25:28;;;;;;;18.33;16.42;;;19.50;89.10;;;;;;5074663;28;20051;-66
2021/06/17 01:28:04;;;;;;;24.10;20.65;;;19.40;89.30;;;;;;5078030;28;20028;-67
2021/06/17 01:30:31;;;;;;;20.60;17.33;;;19.40;89.70;;;;;;5091301;28;20035;-67
2021/06/17 01:33:02;;;;;;;25.33;20.08;;;19.30;89.70;;;;;;5092464;28;20035;-67
2021/06/17 01:35:31;;;;;;;21.17;18.38;;;19.30;89.90;;;;;;5095117;28;20119;-66
2021/06/17 01:38:00;;;;;;;20.10;17.30;;;19.30;90.00;;;;;;5091203;28;20540;-67
2021/06/17 01:40:27;;;;;;;21.48;18.05;;;19.30;90.10;;;;;;5093607;28;20510;-66
2021/06/17 01:42:53;;;;;;;23.77;18.15;;;19.30;90.10;;;;;;5091603;28;20046;-66
2021/06/17 01:45:22;;;;;;;20.83;18.08;;;19.30;90.20;;;;;;5092366;28;20571;-67
2021/06/17 01:47:50;;;;;;;19.80;17.48;;;19.30;90.20;;;;;;5090919;28;20028;-67
2021/06/17 01:50:17;;;;;;;22.40;18.67;;;19.20;90.30;;;;;;5079961;28;20028;-67
2021/06/17 01:52:44;;;;;;;21.40;18.48;;;19.20;90.30;;;;;;5089302;28;20036;-67
2021/06/17 01:55:10;;;;;;;19.95;17.70;;;19.20;90.40;;;;;;5090758;28;20465;-67
2021/06/17 01:57:38;;;;;;;19.65;15.82;;;19.20;90.40;;;;;;5092353;28;20082;-67
2021/06/17 02:00:05;;;;;;;21.90;19.35;;;19.10;90.40;;;;;;5090224;28;20035;-67
2021/06/17 02:02:32;;;;;;;23.35;20.85;;;19.10;90.50;;;;;;5090261;28;20032;-67
2021/06/17 02:04:59;;;;;;;23.50;21.08;;;19.10;90.60;;;;;;5094293;28;20393;-66
2021/06/17 02:07:25;;;;;;;23.88;21.00;;;19.10;90.60;;;;;;5091069;28;20042;-67
2021/06/17 02:09:52;;;;;;;23.15;20.15;;;19.10;90.60;;;;;;5090372;28;20041;-67
2021/06/17 02:12:19;;;;;;;24.63;22.13;;;19.10;90.60;;;;;;5092660;28;20089;-66
2021/06/17 02:14:46;;;;;;;23.10;20.63;;;19.10;90.70;;;;;;5074789;28;20031;-66
2021/06/17 02:17:15;;;;;;;24.85;21.92;;;19.00;90.70;;;;;;5093114;28;20020;-67
2021/06/17 02:19:41;;;;;;;25.98;23.27;;;19.00;90.80;;;;;;5091435;28;20047;-67
2021/06/17 02:22:08;;;;;;;26.10;21.00;;;19.00;90.80;;;;;;5090914;28;20085;-66
2021/06/17 02:24:37;;;;;;;21.40;19.25;;;19.00;90.90;;;;;;5090845;28;20043;-66
2021/06/17 02:27:11;;;;;;;21.35;18.73;;;18.90;90.90;;;;;;5089397;28;20031;-66
2021/06/17 02:29:47;;;;;;;24.58;20.60;;;18.90;91.00;;;;;;5073555;28;20028;-67
2021/06/17 02:32:17;;;;;;;24.88;22.35;;;18.90;91.00;;;;;;5086098;28;20583;-67
2021/06/17 02:34:44;;;;;;;26.00;23.45;;;18.80;91.10;;;;;;5069974;28;20065;-67
2021/06/17 02:37:10;;;;;;;27.65;24.85;;;18.80;91.20;;;;;;5093553;28;20355;-66
2021/06/17 02:39:37;;;;;;;30.27;27.13;;;18.80;91.30;;;;;;5092253;28;20024;-67
2021/06/17 02:42:05;;;;;;;31.92;28.65;;;18.80;91.40;;;;;;5089445;28;20036;-67
2021/06/17 02:44:32;;;;;;;29.88;26.77;;;18.70;91.40;;;;;;5092612;28;20031;-66
2021/06/17 02:46:57;;;;;;;31.67;28.27;;;18.70;91.50;;;;;;5093705;28;20027;-67
2021/06/17 02:49:24;;;;;;;31.33;28.02;;;18.80;91.60;;;;;;5090561;28;20024;-67
2021/06/17 02:51:49;;;;;;;26.80;23.90;;;18.80;91.60;;;;;;5073816;28;20020;-67
2021/06/17 02:54:20;;;;;;;26.98;24.05;;;18.70;91.60;;;;;;5082481;28;20031;-67
2021/06/17 02:56:54;;;;;;;31.40;28.13;;;18.80;91.60;;;;;;5091759;28;20027;-66
2021/06/17 02:59:55;;;;;;;31.02;27.95;;;18.80;91.70;;;;;;5087544;28;20024;-66
2021/06/17 03:02:34;;;;;;;24.88;22.23;;;18.80;91.70;;;;;;5085090;28;20475;-66
2021/06/17 03:05:12;;;;;;;22.40;20.08;;;18.80;91.60;;;;;;5088539;28;20049;-66
2021/06/17 03:07:45;;;;;;;23.27;20.80;;;18.80;91.60;;;;;;5092533;28;20032;-67
2021/06/17 03:10:14;;;;;;;23.23;20.92;;;18.70;91.70;;;;;;5089714;28;20468;-67
2021/06/17 03:12:44;;;;;;;28.38;25.42;;;18.70;91.70;;;;;;5090415;28;20036;-67
2021/06/17 03:15:11;;;;;;;30.75;27.35;;;18.60;91.80;;;;;;5085177;28;20024;-67
2021/06/17 03:17:42;;;;;;;28.30;25.58;;;18.60;91.90;;;;;;5087905;28;20024;-66
2021/06/17 03:20:09;;;;;;;26.50;23.80;;;18.60;92.00;;;;;;5088397;28;20020;-67
2021/06/17 03:22:37;;;;;;;25.13;22.52;;;18.60;92.00;;;;;;5079804;28;20020;-67
2021/06/17 03:25:08;;;;;;;20.65;18.63;;;18.60;91.90;;;;;;5090832;28;20020;-67
2021/06/17 03:27:35;;;;;;;21.85;17.92;;;18.60;91.90;;;;;;5090835;28;20408;-67
2021/06/17 03:30:02;;;;;;;21.02;16.50;;;18.60;91.90;;;;;;5089106;28;20093;-67
2021/06/17 03:32:29;;;;;;;17.98;15.90;;;18.60;91.90;;;;;;5091748;28;20040;-67
2021/06/17 03:34:57;;;;;;;19.98;17.10;;;18.60;91.80;;;;;;5091705;28;20020;-67
2021/06/17 03:37:26;;;;;;;18.63;16.70;;;18.60;91.80;;;;;;5089688;28;20136;-67
2021/06/17 03:39:54;;;;;;;20.75;18.50;;;18.60;91.80;;;;;;5088218;28;20573;-67
2021/06/17 03:42:21;;;;;;;21.15;18.83;;;18.70;91.80;;;;;;5073349;28;20032;-67
2021/06/17 03:44:48;;;;;;;21.88;19.67;;;18.70;91.80;;;;;;5089731;28;20093;-67
2021/06/17 03:47:16;;;;;;;23.08;20.05;;;18.80;91.80;;;;;;5078811;28;20032;-67
2021/06/17 03:49:43;;;;;;;20.60;18.42;;;18.80;91.80;;;;;;5074473;28;20043;-67
2021/06/17 03:52:09;;;;;;;28.80;21.17;;;18.90;91.90;;;;;;5093069;28;20032;-66
2021/06/17 03:54:35;;;;;;;22.38;20.00;;;19.00;91.80;;;;;;5085176;28;20051;-67
2021/06/17 03:57:06;;;;;;;21.40;19.13;;;19.10;91.70;;;;;;5089227;28;20510;-68
2021/06/17 03:59:42;;;;;;;21.55;19.20;;;19.20;91.90;;;;;;5074285;28;20488;-66
2021/06/17 04:02:08;;;;;;;22.80;19.70;;;19.30;91.60;;;;;;5095358;28;20031;-66
2021/06/17 04:04:35;;;;;;;22.88;20.08;;;19.20;91.50;;;;;;5095559;28;20537;-66
2021/06/17 04:07:05;;;;;;;21.48;19.30;;;19.30;91.50;;;;;;5093811;28;20028;-66
2021/06/17 04:09:33;;;;;;;23.77;20.10;;;19.40;91.60;;;;;;5073306;28;20157;-66
2021/06/17 04:12:02;;;;;;;21.33;18.70;;;19.40;91.60;;;;;;5094612;28;20032;-66
2021/06/17 04:14:29;;;;;;;22.58;20.27;;;19.50;91.70;;;;;;5090043;28;20025;-67
2021/06/17 04:16:55;;;;;;;25.33;19.30;;;19.60;91.70;;;;;;5092991;28;20024;-67
2021/06/17 04:19:24;;;;;;;23.20;20.20;;;19.70;91.60;;;;;;5090515;28;20026;-66
2021/06/17 04:21:52;;;;;;;21.10;18.73;;;19.70;91.60;;;;;;5088322;28;20022;-67
2021/06/17 04:24:23;;;;;;;20.23;18.15;;;19.80;91.50;;;;;;5085841;28;20032;-67
2021/06/17 04:26:51;;;;;;;24.20;19.10;;;19.90;91.50;;;;;;5090792;28;20056;-67
2021/06/17 04:29:19;;;;;;;20.42;18.38;;;20.00;91.50;;;;;;5076136;28;20186;-67
2021/06/17 04:31:48;;;;;;;23.65;20.23;;;20.20;91.40;;;;;;5076155;28;20087;-67
2021/06/17 04:34:14;;;;;;;20.58;18.48;;;20.30;91.30;;;;;;5073455;28;20446;-67
2021/06/17 04:36:40;;;;;;;21.75;19.52;;;20.50;91.20;;;;;;5093719;28;20067;-67
2021/06/17 04:39:07;;;;;;;21.85;19.50;;;20.70;91.00;;;;;;5093908;28;20394;-67
2021/06/17 04:41:33;;;;;;;22.63;18.40;;;20.90;90.90;;;;;;5088697;28;20017;-67
2021/06/17 04:44:01;;;;;;;19.80;17.65;;;21.00;90.60;;;;;;5087977;28;20016;-67
2021/06/17 04:46:29;;;;;;;19.88;16.85;;;21.20;90.50;;;;;;5095187;28;20406;-67
2021/06/17 04:48:55;;;;;;;18.60;16.70;;;21.30;90.20;;;;;;5095711;28;20047;-67
2021/06/17 04:51:21;;;;;;;20.50;16.92;;;21.60;90.00;;;;;;5095713;28;20457;-67
2021/06/17 04:53:50;;;;;;;22.40;15.75;;;21.80;89.80;;;;;;5089003;28;20217;-68
2021/06/17 04:56:16;;;;;;;21.08;15.07;;;22.10;89.60;;;;;;5085269;28;20494;-67
2021/06/17 04:58:42;;;;;;;17.35;15.27;;;22.40;88.80;;;;;;5083876;28;20035;-67
2021/06/17 05:01:08;;;;;;;16.88;13.43;;;22.70;87.50;;;;;;5084843;28;20032;-67
2021/06/17 05:03:33;;;;;;;14.60;13.10;;;23.00;86.20;;;;;;5091154;28;20394;-67
2021/06/17 05:06:00;;;;;;;19.75;13.95;;;23.30;85.30;;;;;;5081262;28;20702;-67
2021/06/17 05:10:54;;;;;;;14.07;11.07;;;23.90;82.40;;;;;;5094494;28;20542;-67
2021/06/17 05:13:29;;;;;;;10.73;9.73;;;24.20;81.40;;;;;;5091948;28;20114;-67
2021/06/17 05:15:56;;;;;;;13.27;10.70;;;24.40;80.50;;;;;;5092461;28;20533;-67
2021/06/17 05:18:23;;;;;;;13.70;10.43;;;24.50;79.50;;;;;;5088267;28;20036;-67
2021/06/17 05:20:49;;;;;;;16.08;10.82;;;24.40;78.70;;;;;;5086845;28;20024;-67
2021/06/17 05:23:18;;;;;;;11.80;10.50;;;24.30;78.10;;;;;;5095006;28;20024;-67
2021/06/17 05:25:45;;;;;;;11.80;10.57;;;24.30;78.30;;;;;;5092711;28;20032;-67
2021/06/17 05:28:14;;;;;;;10.15;9.23;;;24.30;77.50;;;;;;5088559;28;20125;-67
2021/06/17 05:30:42;;;;;;;12.85;11.13;;;24.20;77.50;;;;;;5089679;28;20028;-67
2021/06/17 05:33:07;;;;;;;11.38;10.15;;;24.20;77.60;;;;;;5092517;28;20027;-67
2021/06/17 05:35:33;;;;;;;11.35;9.93;;;24.20;77.40;;;;;;5092649;28;20462;-67
2021/06/17 05:37:59;;;;;;;11.88;10.43;;;24.30;77.50;;;;;;5080286;28;20020;-67
2021/06/17 05:40:24;;;;;;;13.75;10.40;;;24.40;76.90;;;;;;5083758;28;20135;-66
2021/06/17 05:42:50;;;;;;;12.40;9.90;;;24.60;76.20;;;;;;5078452;28;20026;-67
2021/06/17 05:45:15;;;;;;;13.05;9.57;;;24.80;75.60;;;;;;5085516;28;20051;-67
2021/06/17 05:47:41;;;;;;;15.38;9.30;;;25.10;74.80;;;;;;5083900;28;20028;-67
2021/06/17 05:50:07;;;;;;;10.95;9.60;;;25.30;73.60;;;;;;5087687;28;20496;-67
2021/06/17 05:52:33;;;;;;;14.48;10.65;;;25.40;73.10;;;;;;5080464;28;20029;-67
2021/06/17 05:54:58;;;;;;;10.48;9.35;;;25.50;72.70;;;;;;5086211;28;20448;-67
2021/06/17 05:57:24;;;;;;;9.80;8.68;;;25.50;72.00;;;;;;5076776;28;20020;-67
2021/06/17 05:59:49;;;;;;;12.65;9.02;;;25.60;71.70;;;;;;5089414;28;20025;-67
2021/06/17 06:02:15;;;;;;;9.30;8.27;;;25.70;71.40;;;;;;5069027;28;20028;-67
2021/06/17 06:04:41;;;;;;;14.07;9.02;;;25.70;71.10;;;;;;5077805;28;20070;-67
2021/06/17 06:07:06;;;;;;;9.32;8.35;;;25.80;70.90;;;;;;5091299;28;20040;-66
2021/06/17 06:09:32;;;;;;;9.50;7.65;;;25.80;70.10;;;;;;5093496;28;20024;-66
2021/06/17 06:11:57;;;;;;;17.05;8.40;;;25.90;69.70;;;;;;5092621;28;20077;-66
2021/06/17 06:14:23;;;;;;;7.80;7.03;;;26.00;68.90;;;;;;5089792;28;20029;-66
2021/06/17 06:16:50;;;;;;;11.75;8.55;;;26.10;68.80;;;;;;5088518;28;20035;-67
2021/06/17 06:19:16;;;;;;;9.43;7.05;;;26.20;68.50;;;;;;5082964;28;20493;-67
2021/06/17 06:21:44;;;;;;;10.98;7.35;;;26.30;68.00;;;;;;5091956;28;20378;-67
2021/06/17 06:24:09;;;;;;;11.35;6.80;;;26.30;67.30;;;;;;5090413;28;20093;-67
2021/06/17 06:26:35;;;;;;;9.85;7.07;;;26.50;66.90;;;;;;5086781;28;20032;-67
2021/06/17 06:29:01;;;;;;;9.20;7.05;;;26.60;66.10;;;;;;5093380;28;20032;-67
2021/06/17 06:31:26;;;;;;;7.18;6.05;;;26.70;65.90;;;;;;5077311;28;20039;-67
2021/06/17 06:33:52;;;;;;;10.05;6.10;;;26.80;66.10;;;;;;5078703;28;20029;-67
2021/06/17 06:36:17;;;;;;;8.95;6.10;;;26.90;64.80;;;;;;5091064;28;20063;-67
2021/06/17 06:38:43;;;;;;;10.93;5.85;;;27.00;64.50;;;;;;5072652;28;20024;-66
2021/06/17 06:41:08;;;;;;;8.65;6.40;;;27.00;64.00;;;;;;5088696;28;20164;-67
2021/06/17 06:43:34;;;;;;;8.65;5.78;;;27.20;63.80;;;;;;5080049;28;20028;-67
2021/06/17 06:45:59;;;;;;;8.43;5.80;;;27.20;63.90;;;;;;5079389;28;20096;-67
2021/06/17 06:48:25;;;;;;;10.00;5.85;;;27.20;63.60;;;;;;5089872;28;20040;-67
2021/06/17 06:50:51;;;;;;;9.20;6.47;;;27.20;63.40;;;;;;5085887;28;20028;-67
2021/06/17 06:53:17;;;;;;;11.43;6.28;;;27.10;63.20;;;;;;5079808;28;20028;-66
2021/06/17 06:55:42;;;;;;;10.00;6.15;;;27.00;62.50;;;;;;5089800;28;20067;-67
2021/06/17 06:58:08;;;;;;;14.10;6.53;;;26.90;62.80;;;;;;5087832;28;20024;-66
2021/06/17 07:00:33;;;;;;;7.85;6.00;;;26.80;62.90;;;;;;5088662;28;20024;-66
2021/06/17 07:02:59;;;;;;;8.85;6.10;;;26.80;63.30;;;;;;5084587;28;20024;-67
2021/06/17 07:05:26;;;;;;;11.32;6.32;;;26.70;63.10;;;;;;5083038;28;20028;-66
2021/06/17 07:07:52;;;;;;;10.40;6.28;;;26.60;63.30;;;;;;5084901;28;20589;-67
2021/06/17 07:10:18;;;;;;;10.02;6.70;;;26.60;63.80;;;;;;5083736;28;20106;-67
2021/06/17 07:12:43;;;;;;;7.03;6.25;;;26.50;64.10;;;;;;5086283;28;20031;-67
2021/06/17 07:15:10;;;;;;;7.60;5.80;;;26.50;64.60;;;;;;5086123;28;20044;-67
2021/06/17 07:17:35;;;;;;;11.75;6.82;;;26.60;65.00;;;;;;5084952;28;20078;-67
2021/06/17 07:20:01;;;;;;;8.45;5.28;;;26.60;65.20;;;;;;5097271;28;20471;-67
2021/06/17 07:22:27;;;;;;;9.98;6.07;;;26.70;65.40;;;;;;5097139;28;20046;-67
2021/06/17 07:24:53;;;;;;;9.18;5.85;;;26.80;65.90;;;;;;5095739;28;20424;-66
2021/06/17 07:27:19;;;;;;;8.43;5.80;;;27.10;64.90;;;;;;5091638;28;20202;-65
2021/06/17 07:29:45;;;;;;;5.30;4.80;;;27.40;64.60;;;;;;5092418;28;20110;-65
2021/06/17 07:32:11;;;;;;;6.20;4.72;;;27.80;63.20;;;;;;5089736;28;20112;-67
2021/06/17 07:34:37;;;;;;;6.30;3.97;;;28.10;62.20;;;;;;5082075;28;20028;-66
2021/06/17 07:37:03;;;;;;;8.10;3.22;;;28.40;60.60;;;;;;5093240;28;20036;-67
2021/06/17 07:39:32;;;;;;;7.43;3.20;;;28.60;58.60;;;;;;5088993;28;20024;-66
2021/06/17 07:41:58;;;;;;;6.25;2.15;;;28.80;57.60;;;;;;5088427;28;20024;-67
2021/06/17 07:44:23;;;;;;;6.32;1.77;;;28.80;56.10;;;;;;5095692;28;20393;-67
2021/06/17 07:46:49;;;;;;;5.45;2.05;;;28.80;55.60;;;;;;5093690;28;20027;-67
2021/06/17 07:49:14;;;;;;;8.45;2.10;;;28.90;55.30;;;;;;5094731;28;20054;-67
2021/06/17 07:51:40;;;;;;;5.07;1.67;;;28.90;55.50;;;;;;5092788;28;20024;-67
2021/06/17 07:54:06;;;;;;;3.35;2.22;;;28.80;55.30;;;;;;5095541;28;20502;-67
2021/06/17 07:56:32;;;;;;;5.63;1.88;;;28.70;54.80;;;;;;5088032;28;20177;-67
2021/06/17 07:58:59;;;;;;;7.07;2.17;;;28.70;55.20;;;;;;5087805;28;20020;-67
2021/06/17 08:01:25;;;;;;;2.95;1.90;;;28.70;55.30;;;;;;5082016;28;20584;-67
2021/06/17 08:03:51;;;;;;;4.15;1.75;;;28.80;55.90;;;;;;5088795;28;20115;-67
2021/06/17 08:06:18;;;;;;;3.40;1.85;;;28.80;56.00;;;;;;5096330;28;20112;-67
2021/06/17 08:08:44;;;;;;;5.25;2.00;;;28.90;55.10;;;;;;5092877;28;20138;-67
2021/06/17 08:11:11;;;;;;;5.22;2.20;;;28.90;55.30;;;;;;5086998;28;20119;-67
2021/06/17 08:13:36;;;;;;;2.58;1.75;;;28.90;56.00;;;;;;5095349;28;20125;-67
2021/06/17 08:16:03;;;;;;;3.95;1.95;;;28.80;55.50;;;;;;5096025;28;20070;-66
2021/06/17 08:18:28;;;;;;;6.20;1.92;;;28.80;55.30;;;;;;5094791;28;20390;-67
2021/06/17 08:20:55;;;;;;;3.20;1.60;;;28.80;56.00;;;;;;5088750;28;20020;-67
2021/06/17 08:23:21;;;;;;;2.50;1.60;;;28.90;55.90;;;;;;5096323;28;20027;-67
2021/06/17 08:25:48;;;;;;;4.13;1.45;;;29.00;55.70;;;;;;5095644;28;20042;-67
2021/06/17 08:28:14;;;;;;;6.07;1.85;;;29.10;56.10;;;;;;5092393;28;20032;-67
2021/06/17 08:30:39;;;;;;;4.72;1.90;;;29.20;54.60;;;;;;5093200;28;20093;-67
2021/06/17 08:33:05;;;;;;;3.20;2.13;;;29.10;55.10;;;;;;5095615;28;20362;-66
2021/06/17 08:35:31;;;;;;;7.43;1.80;;;29.00;54.90;;;;;;5096364;28;20032;-67
2021/06/17 08:37:57;;;;;;;4.07;1.70;;;29.10;55.00;;;;;;5094151;28;20046;-67
2021/06/17 08:40:25;;;;;;;3.83;2.10;;;29.20;54.90;;;;;;5093036;28;20024;-67
2021/06/17 08:42:51;;;;;;;4.20;1.80;;;29.30;54.50;;;;;;5094197;28;20420;-67
2021/06/17 08:45:17;;;;;;;6.00;1.70;;;29.50;54.80;;;;;;5083535;28;20031;-67
2021/06/17 08:47:42;;;;;;;5.80;1.80;;;29.50;54.00;;;;;;5094007;28;20038;-67
2021/06/17 08:50:11;;;;;;;4.85;2.03;;;29.60;53.70;;;;;;5090377;28;20818;-67
2021/06/17 08:52:40;;;;;;;5.38;2.05;;;29.70;54.10;;;;;;5082972;28;20028;-67
2021/06/17 08:55:14;;;;;;;4.95;2.20;;;29.70;54.00;;;;;;5089753;28;20063;-67
2021/06/17 08:57:40;;;;;;;10.70;3.10;;;29.80;53.60;;;;;;5095459;28;20082;-67
2021/06/17 09:00:31;;;;;;;6.72;2.60;;;29.70;53.50;;;;;;5092185;28;20060;-67
2021/06/17 09:03:01;;;;;;;4.90;2.40;;;29.70;54.00;;;;;;5068699;28;20085;-67
2021/06/17 09:05:28;;;;;;;5.20;2.20;;;29.70;54.30;;;;;;5082044;28;20040;-67
2021/06/17 09:07:54;;;;;;;4.50;1.95;;;29.90;54.00;;;;;;5094476;28;20075;-67
2021/06/17 09:10:21;;;;;;;5.93;1.90;;;30.10;53.60;;;;;;5094309;28;20028;-68
2021/06/17 09:12:52;;;;;;;6.35;1.88;;;30.20;54.10;;;;;;5093074;28;20367;-68
2021/06/17 09:15:38;;;;;;;3.87;2.23;;;30.30;53.50;;;;;;5093590;28;20114;-68
2021/06/17 09:18:20;;;;;;;6.30;2.13;;;30.60;53.50;;;;;;5088943;28;20273;-67
2021/06/17 09:20:47;;;;;;;;;;;30.60;53.80;;;;;;5089342;28;20016;-67
2021/06/17 09:23:36;;;;;;;4.45;2.00;;;30.70;53.90;;;;;;5082239;28;19904;-67
2021/06/17 09:26:05;;;;;;;3.30;1.67;;;30.70;53.00;;;;;;5082964;28;20024;-67
2021/06/17 09:28:59;;;;;;;5.50;2.25;;;30.70;52.50;;;;;;5087897;28;20082;-67
2021/06/17 09:31:34;;;;;;;5.05;2.10;;;30.60;52.00;;;;;;5088090;28;20449;-67
2021/06/17 09:34:00;;;;;;;4.38;1.80;;;30.60;53.00;;;;;;5089901;28;20073;-67
2021/06/17 09:36:32;;;;;;;5.35;2.05;;;30.70;52.00;;;;;;5092760;28;20035;-67
2021/06/17 09:38:59;;;;;;;;;;;30.70;52.20;;;;;;5091124;28;20450;-67
2021/06/17 09:41:44;;;;;;;3.92;2.10;;;30.80;52.30;;;;;;5087789;28;19922;-67
2021/06/17 09:44:31;;;;;;;3.08;1.90;;;31.00;51.60;;;;;;5083018;28;20050;-67
2021/06/17 09:47:11;;;;;;;3.65;1.63;;;31.10;50.30;;;;;;5083301;28;20028;-67
2021/06/17 09:49:38;;;;;;;6.13;2.70;;;31.10;50.70;;;;;;5066706;28;20050;-67
2021/06/17 09:52:05;;;;;;;2.67;1.77;;;31.10;50.90;;;;;;5094189;28;20028;-67
2021/06/17 09:54:36;;;;;;;2.38;1.77;;;31.20;50.30;;;;;;5084424;28;20068;-67
2021/06/17 09:57:06;;;;;;;3.97;1.85;;;31.20;51.30;;;;;;5090926;28;20394;-67
2021/06/17 09:59:36;;;;;;;5.80;1.98;;;31.20;51.70;;;;;;5093140;28;20028;-67
2021/06/17 10:02:04;;;;;;;6.10;2.30;;;31.40;51.30;;;;;;5076441;28;20024;-67
2021/06/17 10:04:30;;;;;;;4.55;2.83;;;31.70;50.80;;;;;;5082040;28;20028;-67
2021/06/17 10:06:56;;;;;;;4.75;2.03;;;31.90;50.20;;;;;;5074094;28;20032;-67
2021/06/17 10:09:24;;;;;;;7.00;2.15;;;32.10;50.50;;;;;;5092433;28;20024;-67
2021/06/17 10:11:51;;;;;;;2.40;1.42;;;32.30;49.90;;;;;;5090885;28;20378;-67
2021/06/17 10:14:17;;;;;;;3.38;1.60;;;32.60;50.10;;;;;;5079521;28;20442;-67
2021/06/17 10:16:44;;;;;;;6.53;2.10;;;32.80;49.50;;;;;;5073830;28;20032;-67
2021/06/17 10:19:11;;;;;;;6.88;1.58;;;33.10;49.60;;;;;;5091174;28;20043;-67
2021/06/17 10:21:36;;;;;;;3.08;1.88;;;33.30;49.00;;;;;;5092824;28;20146;-67
2021/06/17 10:24:10;;;;;;;5.40;2.20;;;33.40;48.80;;;;;;5093883;28;20503;-67
2021/06/17 10:26:48;;;;;;;3.72;1.88;;;33.30;48.50;;;;;;5092216;28;20028;-67
2021/06/17 10:29:28;;;;;;;4.25;2.33;;;33.20;48.50;;;;;;5089384;28;20028;-67
2021/06/17 10:31:55;;;;;;;6.50;1.83;;;33.30;49.10;;;;;;5093583;28;20043;-67
2021/06/17 10:34:23;;;;;;;4.88;2.10;;;33.40;48.90;;;;;;5093523;28;20035;-67
2021/06/17 10:37:10;;;;;;;6.13;1.80;;;33.50;47.90;;;;;;5090532;28;20497;-66
2021/06/17 10:39:47;;;;;;;5.57;2.35;;;33.60;47.70;;;;;;5092023;28;20436;-67
2021/06/17 10:42:29;;;;;;;4.35;2.20;;;33.50;47.20;;;;;;5084441;28;20339;-67
2021/06/17 10:45:00;;;;;;;3.33;1.52;;;33.50;47.50;;;;;;5091554;28;20032;-67
2021/06/17 10:47:49;;;;;;;4.75;1.92;;;33.50;48.70;;;;;;5062449;28;20031;-67
2021/06/17 10:50:58;;;;;;;3.13;1.90;;;33.60;47.80;;;;;;5093715;28;20031;-67
2021/06/17 10:53:36;;;;;;;7.43;1.75;;;33.60;47.70;;;;;;5078896;28;20032;-67
2021/06/17 10:56:03;;;;;;;5.05;1.90;;;33.60;47.50;;;;;;5081982;28;20524;-67
2021/06/17 10:58:41;;;;;;;3.53;1.70;;;33.60;47.80;;;;;;5066343;28;20029;-66
2021/06/17 11:01:23;;;;;;;3.50;1.60;;;33.60;47.60;;;;;;5089094;28;20469;-66
2021/06/17 11:04:01;;;;;;;5.50;1.73;;;33.70;47.60;;;;;;5092498;28;20030;-66
2021/06/17 11:06:49;;;;;;;6.97;1.83;;;33.60;47.60;;;;;;5077015;28;20087;-66
2021/06/17 11:09:48;;;;;;;4.13;2.05;;;33.60;47.90;;;;;;5086038;28;20108;-65
2021/06/17 11:12:17;;;;;;;3.40;1.98;;;33.70;48.60;;;;;;5082425;28;20072;-66
2021/06/17 11:14:44;;;;;;;5.75;2.60;;;33.80;47.60;;;;;;5093070;28;20020;-65
2021/06/17 11:17:34;;;;;;;8.98;2.13;;;33.60;46.90;;;;;;5071765;28;20134;-65
2021/06/17 11:20:09;;;;;;;4.50;2.22;;;33.40;47.40;;;;;;5062527;28;20017;-65
2021/06/17 11:22:48;;;;;;;4.28;1.90;;;33.30;48.00;;;;;;5081545;28;20067;-65
2021/06/17 11:25:17;;;;;;;4.05;2.13;;;33.40;48.50;;;;;;5072965;28;20024;-65
2021/06/17 11:28:07;;;;;;;6.22;2.35;;;33.30;47.90;;;;;;5087344;28;20025;-65
2021/06/17 11:30:39;;;;;;;4.43;2.00;;;33.20;48.50;;;;;;5080491;28;20029;-66
2021/06/17 11:33:19;;;;;;;6.80;2.20;;;33.30;48.50;;;;;;5077719;28;20026;-65
2021/06/17 11:35:49;;;;;;;4.47;1.73;;;33.30;48.60;;;;;;5085381;28;20020;-65
2021/06/17 11:38:29;;;;;;;3.55;1.80;;;33.40;49.00;;;;;;5067828;28;20398;-65
2021/06/17 11:40:56;;;;;;;4.95;2.00;;;33.50;49.10;;;;;;5085512;28;20051;-65
2021/06/17 11:43:22;;;;;;;5.55;1.83;;;33.60;48.00;;;;;;5087074;28;20540;-65
2021/06/17 11:45:48;;;;;;;2.75;1.42;;;33.50;47.10;;;;;;5456436;22;20067;-85
2021/06/17 11:48:13;;;;;;;2.97;1.40;;;33.40;45.80;;;;;;5064687;28;20378;-85
2021/06/17 11:50:43;;;;;;;3.35;1.75;;;33.30;47.00;;;;;;5068205;28;20033;-86
2021/06/17 11:53:20;;;;;;;5.22;1.15;;;33.40;47.10;;;;;;5070192;28;20037;-85
2021/06/17 11:55:47;;;;;;;3.38;1.25;;;33.40;45.30;;;;;;5070261;28;20029;-86
2021/06/17 11:58:12;;;;;;;5.50;0.90;;;33.40;44.50;;;;;;5070154;28;20061;-85
2021/06/17 12:00:38;;;;;;;4.13;1.20;;;33.40;44.10;;;;;;5067098;28;20049;-86
2021/06/17 12:03:24;;;;;;;5.25;1.50;;;33.30;45.00;;;;;;5067547;28;20113;-86
2021/06/17 12:06:12;;;;;;;4.90;1.23;;;33.40;45.80;;;;;;5065062;28;20098;-86
2021/06/17 12:08:39;;;;;;;3.53;1.13;;;33.50;45.70;;;;;;5063547;28;20028;-86
2021/06/17 12:11:18;;;;;;;3.00;0.93;;;33.80;46.00;;;;;;5063318;28;20028;-85
2021/06/17 12:13:54;;;;;;;2.33;0.93;;;33.90;44.20;;;;;;5085661;28;20075;-85
2021/06/17 12:16:20;;;;;;;2.53;0.88;;;33.90;43.60;;;;;;5074574;28;20035;-85
2021/06/17 12:18:46;;;;;;;4.38;0.93;;;33.90;43.60;;;;;;5079198;28;20119;-86
2021/06/17 12:21:21;;;;;;;3.13;0.90;;;33.90;42.70;;;;;;5069474;28;20555;-86
2021/06/17 12:23:47;;;;;;;2.92;0.80;;;33.80;42.90;;;;;;5068183;28;20087;-86
2021/06/17 12:26:14;;;;;;;6.30;0.70;;;33.60;43.10;;;;;;5061077;28;20384;-88
2021/06/17 12:28:50;;;;;;;3.05;1.30;;;33.40;44.20;;;;;;5075181;28;20392;-87
2021/06/17 12:31:32;;;;;;;2.22;0.70;;;33.40;44.50;;;;;;5061409;28;20025;-86
2021/06/17 12:34:17;;;;;;;3.22;0.80;;;33.60;44.70;;;;;;5075108;28;20638;-85
2021/06/17 12:36:44;;;;;;;7.72;1.17;;;33.70;44.40;;;;;;5074681;28;20017;-85
2021/06/17 12:39:14;;;;;;;3.92;0.82;;;33.70;44.10;;;;;;5066948;28;20033;-85
2021/06/17 12:41:46;;;;;;;4.68;0.85;;;33.60;43.70;;;;;;5055563;28;20032;-85
2021/06/17 12:44:32;;;;;;;4.43;0.80;;;33.40;43.90;;;;;;5074611;28;20086;-85
2021/06/17 12:47:02;;;;;;;2.60;0.70;;;33.30;43.80;;;;;;5076237;28;20522;-86
2021/06/17 12:52:08;;;;;;;2.65;0.65;;;33.20;44.30;;;;;;5077332;28;20060;-86
2021/06/17 12:54:42;;;;;;;3.95;0.90;;;33.10;43.90;;;;;;5071038;28;20043;-86